createdAt,value
2018-09-30T00:00:40.344Z,88.59
2018-09-30T00:03:10.204Z,88.70
2018-09-30T00:05:38.908Z,88.88
2018-09-30T00:08:07.954Z,89.04
2018-09-30T00:10:37.174Z,88.52
2018-09-30T00:13:06.489Z,88.74
2018-09-30T00:15:36.253Z,89.28
2018-09-30T00:18:06.003Z,89.63
2018-09-30T00:20:35.065Z,89.81
2018-09-30T00:23:04.238Z,89.31
2018-09-30T00:25:38.727Z,89.61
2018-09-30T00:28:07.587Z,89.47
2018-09-30T00:30:36.895Z,89.60
2018-09-30T00:33:06.149Z,88.62
2018-09-30T00:35:35.210Z,89.11
2018-09-30T00:38:04.731Z,89.67
2018-09-30T00:40:34.838Z,90.42
2018-09-30T00:43:03.710Z,90.60
2018-09-30T00:45:32.659Z,90.79
2018-09-30T00:48:01.310Z,90.81
2018-09-30T00:50:30.886Z,91.29
2018-09-30T00:52:59.807Z,91.04
2018-09-30T00:55:29.192Z,90.92
2018-09-30T00:57:57.888Z,91.15
2018-09-30T01:00:26.744Z,91.32
2018-09-30T01:02:55.776Z,90.00
2018-09-30T01:05:24.668Z,89.83
2018-09-30T01:07:54.139Z,90.30
2018-09-30T01:10:23.049Z,90.89
2018-09-30T01:12:52.599Z,91.21
2018-09-30T01:15:21.503Z,91.21
2018-09-30T01:17:51.043Z,90.61
2018-09-30T01:20:20.224Z,90.51
2018-09-30T01:22:49.114Z,90.02
2018-09-30T01:25:18.697Z,90.52
2018-09-30T01:27:47.580Z,89.72
2018-09-30T01:30:17.340Z,90.82
2018-09-30T01:32:46.448Z,90.69
2018-09-30T01:35:15.275Z,90.63
2018-09-30T01:37:44.756Z,90.53
2018-09-30T01:40:13.585Z,91.75
2018-09-30T01:42:42.260Z,91.72
2018-09-30T01:45:11.399Z,92.08
2018-09-30T01:47:40.675Z,92.77
2018-09-30T01:50:09.698Z,91.85
2018-09-30T01:52:50.680Z,91.68
2018-09-30T01:55:21.363Z,91.93
2018-09-30T01:57:51.769Z,91.83
2018-09-30T02:00:20.820Z,91.49
2018-09-30T02:02:49.858Z,91.71
2018-09-30T02:05:18.965Z,91.89
2018-09-30T02:07:48.807Z,92.02
2018-09-30T02:10:18.555Z,91.98
2018-09-30T02:12:47.610Z,91.03
2018-09-30T02:15:16.643Z,90.67
2018-09-30T02:17:45.710Z,90.53
2018-09-30T02:20:14.341Z,91.22
2018-09-30T02:22:43.180Z,91.23
2018-09-30T02:25:13.379Z,91.34
2018-09-30T02:27:42.970Z,91.42
2018-09-30T02:30:12.211Z,91.85
2018-09-30T02:32:41.502Z,91.88
2018-09-30T02:35:10.501Z,91.80
2018-09-30T02:37:39.716Z,91.77
2018-09-30T02:40:10.133Z,91.88
2018-09-30T02:42:39.013Z,91.96
2018-09-30T02:45:07.584Z,91.71
2018-09-30T02:47:36.689Z,91.80
2018-09-30T02:50:06.029Z,91.73
2018-09-30T02:52:35.059Z,91.39
2018-09-30T02:55:03.920Z,91.31
2018-09-30T02:57:32.551Z,91.33
2018-09-30T03:00:01.225Z,91.64
2018-09-30T03:02:30.061Z,91.50
2018-09-30T03:04:58.981Z,92.29
2018-09-30T03:07:32.789Z,92.22
2018-09-30T03:10:01.648Z,91.19
2018-09-30T03:12:31.004Z,91.73
2018-09-30T03:15:00.390Z,91.92
2018-09-30T03:17:29.304Z,91.42
2018-09-30T03:19:58.169Z,92.33
2018-09-30T03:22:26.833Z,92.30
2018-09-30T03:24:55.890Z,92.16
2018-09-30T03:27:24.860Z,91.46
2018-09-30T03:29:54.485Z,92.60
2018-09-30T03:32:23.138Z,92.27
2018-09-30T03:34:51.847Z,92.78
2018-09-30T03:37:20.829Z,92.85
2018-09-30T03:39:50.359Z,92.12
2018-09-30T03:42:19.550Z,91.81
2018-09-30T03:44:48.588Z,91.91
2018-09-30T03:47:17.348Z,92.05
2018-09-30T03:49:47.148Z,93.11
2018-09-30T03:52:16.429Z,92.95
2018-09-30T03:54:45.033Z,92.87
2018-09-30T03:57:14.001Z,92.91
2018-09-30T03:59:43.293Z,93.59
2018-09-30T04:02:11.970Z,93.52
2018-09-30T04:04:40.743Z,93.11
2018-09-30T04:07:09.963Z,93.03
2018-09-30T04:09:38.916Z,92.80
2018-09-30T04:12:07.578Z,93.01
2018-09-30T04:14:36.588Z,92.65
2018-09-30T04:17:05.861Z,92.81
2018-09-30T04:19:34.927Z,92.36
2018-09-30T04:22:03.894Z,93.11
2018-09-30T04:24:32.456Z,92.70
2018-09-30T04:27:01.085Z,93.23
2018-09-30T04:29:29.946Z,92.52
2018-09-30T04:31:58.711Z,92.74
2018-09-30T04:34:27.453Z,92.83
2018-09-30T04:36:56.545Z,92.09
2018-09-30T04:39:25.859Z,92.27
2018-09-30T04:41:55.345Z,92.18
2018-09-30T04:44:24.365Z,92.27
2018-09-30T04:46:53.590Z,92.66
2018-09-30T04:49:22.480Z,93.09
2018-09-30T04:51:51.062Z,93.25
2018-09-30T04:54:20.047Z,93.52
2018-09-30T04:56:48.604Z,93.41
2018-09-30T04:59:17.348Z,93.66
2018-09-30T05:01:45.991Z,93.46
2018-09-30T05:04:15.346Z,92.85
2018-09-30T05:06:44.351Z,92.40
2018-09-30T05:09:13.599Z,92.43
2018-09-30T05:11:42.443Z,92.96
2018-09-30T05:14:11.971Z,92.72
2018-09-30T05:16:41.344Z,93.16
2018-09-30T05:19:10.029Z,93.26
2018-09-30T05:21:38.684Z,93.07
2018-09-30T05:24:07.499Z,93.82
2018-09-30T05:26:36.199Z,92.84
2018-09-30T05:29:05.714Z,93.73
2018-09-30T05:31:34.637Z,93.45
2018-09-30T05:34:04.824Z,93.53
2018-09-30T05:36:33.998Z,93.01
2018-09-30T05:39:03.524Z,93.91
2018-09-30T05:41:32.264Z,93.18
2018-09-30T05:44:01.019Z,93.61
2018-09-30T05:46:30.052Z,93.71
2018-09-30T05:48:59.267Z,93.06
2018-09-30T05:51:28.600Z,93.11
2018-09-30T05:53:57.570Z,93.80
2018-09-30T05:56:26.705Z,93.95
2018-09-30T05:58:55.754Z,93.71
2018-09-30T06:01:24.357Z,92.90
2018-09-30T06:03:53.212Z,92.75
2018-09-30T06:06:21.875Z,93.17
2018-09-30T06:08:51.033Z,93.19
2018-09-30T06:11:20.339Z,93.34
2018-09-30T06:13:49.538Z,93.01
2018-09-30T06:16:18.667Z,92.98
2018-09-30T06:18:47.810Z,93.25
2018-09-30T06:21:17.157Z,93.11
2018-09-30T06:23:46.976Z,93.08
2018-09-30T06:26:17.596Z,92.66
2018-09-30T06:28:46.407Z,92.90
2018-09-30T06:31:15.106Z,92.70
2018-09-30T06:33:44.162Z,92.05
2018-09-30T06:36:13.081Z,91.43
2018-09-30T06:38:44.814Z,91.38
2018-09-30T06:41:13.794Z,91.41
2018-09-30T06:43:43.165Z,91.36
2018-09-30T06:46:11.910Z,90.99
2018-09-30T06:48:41.200Z,90.34
2018-09-30T06:51:09.910Z,90.40
2018-09-30T06:53:38.916Z,90.64
2018-09-30T06:56:08.042Z,90.59
2018-09-30T06:58:36.664Z,90.50
2018-09-30T07:01:05.605Z,90.43
2018-09-30T07:03:34.636Z,90.70
2018-09-30T07:06:04.176Z,90.15
2018-09-30T07:08:33.218Z,90.12
2018-09-30T07:11:02.171Z,89.85
2018-09-30T07:13:31.856Z,89.53
2018-09-30T07:16:01.001Z,89.23
2018-09-30T07:18:31.261Z,88.37
2018-09-30T07:21:00.425Z,87.67
2018-09-30T07:23:29.597Z,87.32
2018-09-30T07:25:58.724Z,85.14
2018-09-30T07:28:28.101Z,81.67
2018-09-30T07:30:57.115Z,77.71
2018-09-30T07:33:26.181Z,77.90
2018-09-30T07:35:54.826Z,77.89
2018-09-30T07:38:23.396Z,78.35
2018-09-30T07:40:52.200Z,77.99
2018-09-30T07:43:22.675Z,76.81
2018-09-30T07:45:51.689Z,75.07
2018-09-30T07:48:20.498Z,73.99
2018-09-30T07:50:49.317Z,74.00
2018-09-30T07:53:18.620Z,74.85
2018-09-30T07:55:47.658Z,75.79
2018-09-30T07:58:16.910Z,75.52
2018-09-30T08:00:45.906Z,73.82
2018-09-30T08:03:15.512Z,71.54
2018-09-30T08:05:44.431Z,67.35
2018-09-30T08:08:13.870Z,64.47
2018-09-30T08:10:43.206Z,57.75
2018-09-30T08:13:13.078Z,50.94
2018-09-30T08:15:42.203Z,47.82
2018-09-30T08:18:11.545Z,42.00
2018-09-30T08:20:40.369Z,39.45
2018-09-30T08:23:09.586Z,37.63
2018-09-30T08:25:39.202Z,34.62
2018-09-30T08:28:08.191Z,34.20
2018-09-30T08:30:37.780Z,33.09
2018-09-30T08:33:07.090Z,31.34
2018-09-30T08:35:36.720Z,31.47
2018-09-30T08:38:11.101Z,31.43
2018-09-30T08:40:45.215Z,29.65
2018-09-30T08:43:14.877Z,29.58
2018-09-30T08:45:43.934Z,27.82
2018-09-30T08:48:12.951Z,27.25
2018-09-30T08:50:41.956Z,26.08
2018-09-30T08:53:11.336Z,26.87
2018-09-30T08:55:40.581Z,27.59
2018-09-30T08:58:09.427Z,27.07
2018-09-30T09:00:38.177Z,25.33
2018-09-30T09:03:07.361Z,25.75
2018-09-30T09:05:36.036Z,25.84
2018-09-30T09:08:04.821Z,25.17
2018-09-30T09:10:33.566Z,24.73
2018-09-30T09:13:02.319Z,24.69
2018-09-30T09:15:31.408Z,24.59
2018-09-30T09:18:01.667Z,23.54
2018-09-30T09:20:30.997Z,22.80
2018-09-30T09:23:00.055Z,23.40
2018-09-30T09:25:29.316Z,23.67
2018-09-30T09:27:58.686Z,21.81
2018-09-30T09:30:27.921Z,21.55
2018-09-30T09:32:57.004Z,20.40
2018-09-30T09:35:26.097Z,20.55
2018-09-30T09:37:54.947Z,21.24
2018-09-30T09:40:23.876Z,19.67
2018-09-30T09:42:52.897Z,20.11
2018-09-30T09:45:22.091Z,19.68
2018-09-30T09:47:51.122Z,19.64
2018-09-30T09:50:20.417Z,18.66
2018-09-30T09:52:49.976Z,19.13
2018-09-30T09:55:19.098Z,18.94
2018-09-30T09:57:48.865Z,18.01
2018-09-30T10:00:22.947Z,18.40
2018-09-30T10:02:51.570Z,18.80
2018-09-30T10:05:21.077Z,19.47
2018-09-30T10:07:50.002Z,17.81
2018-09-30T10:10:19.247Z,17.47
2018-09-30T10:12:48.351Z,17.71
2018-09-30T10:15:18.683Z,17.75
2018-09-30T10:17:47.926Z,17.40
2018-09-30T10:20:17.183Z,18.18
2018-09-30T10:22:45.998Z,17.88
2018-09-30T10:25:14.788Z,17.75
2018-09-30T10:27:43.718Z,17.30
2018-09-30T10:30:13.068Z,17.07
2018-09-30T10:32:42.197Z,17.81
2018-09-30T10:35:11.132Z,17.69
2018-09-30T10:37:40.027Z,15.99
2018-09-30T10:40:08.893Z,16.12
2018-09-30T10:42:37.874Z,16.58
2018-09-30T10:45:07.376Z,14.83
2018-09-30T10:47:36.664Z,16.18
2018-09-30T10:50:05.758Z,15.67
2018-09-30T10:52:34.573Z,15.09
2018-09-30T10:55:03.298Z,15.72
2018-09-30T10:57:32.217Z,15.69
2018-09-30T11:00:01.738Z,15.22
2018-09-30T11:02:32.169Z,14.79
2018-09-30T11:05:02.264Z,14.62
2018-09-30T11:07:32.607Z,16.10
2018-09-30T11:10:01.869Z,16.08
2018-09-30T11:12:30.979Z,15.96
2018-09-30T11:14:59.944Z,15.23
2018-09-30T11:17:28.843Z,15.13
2018-09-30T11:19:57.905Z,15.31
2018-09-30T11:22:26.839Z,14.71
2018-09-30T11:24:55.987Z,15.30
2018-09-30T11:27:25.189Z,15.32
2018-09-30T11:29:54.203Z,16.07
2018-09-30T11:32:23.596Z,15.81
2018-09-30T11:34:52.873Z,16.17
2018-09-30T11:37:21.966Z,14.42
2018-09-30T11:39:51.239Z,14.26
2018-09-30T11:42:20.910Z,14.74
2018-09-30T11:44:49.739Z,15.01
2018-09-30T11:47:19.209Z,14.90
2018-09-30T11:49:48.259Z,15.87
2018-09-30T11:52:17.345Z,15.12
2018-09-30T11:54:47.080Z,14.72
2018-09-30T11:57:15.814Z,14.65
2018-09-30T11:59:45.059Z,14.12
2018-09-30T12:02:14.565Z,14.08
2018-09-30T12:04:43.354Z,14.68
2018-09-30T12:07:12.713Z,14.61
2018-09-30T12:09:41.925Z,15.05
2018-09-30T12:12:11.119Z,15.27
2018-09-30T12:14:41.502Z,14.84
2018-09-30T12:17:10.678Z,15.53
2018-09-30T12:19:39.840Z,15.48
2018-09-30T12:22:08.871Z,14.61
2018-09-30T12:24:37.978Z,14.36
2018-09-30T12:27:06.837Z,14.87
2018-09-30T12:29:35.729Z,15.24
2018-09-30T12:32:04.859Z,15.46
2018-09-30T12:34:34.250Z,15.75
2018-09-30T12:37:04.534Z,14.51
2018-09-30T12:39:33.507Z,15.03
2018-09-30T12:42:03.043Z,14.74
2018-09-30T12:44:32.179Z,14.64
2018-09-30T12:47:01.259Z,14.48
2018-09-30T12:49:30.027Z,14.51
2018-09-30T12:51:59.983Z,14.65
2018-09-30T12:54:29.070Z,14.94
2018-09-30T12:56:58.192Z,15.12
2018-09-30T12:59:27.328Z,14.80
2018-09-30T13:01:56.553Z,15.62
2018-09-30T13:04:26.004Z,15.25
2018-09-30T13:06:55.076Z,15.06
2018-09-30T13:09:24.141Z,14.90
2018-09-30T13:11:52.978Z,15.25
2018-09-30T13:14:21.862Z,15.21
2018-09-30T13:16:50.958Z,15.41
2018-09-30T13:19:20.016Z,14.61
2018-09-30T13:21:48.920Z,14.59
2018-09-30T13:24:19.570Z,14.82
2018-09-30T13:26:48.365Z,15.54
2018-09-30T13:29:18.182Z,17.16
2018-09-30T13:31:47.208Z,16.45
2018-09-30T13:34:16.052Z,16.73
2018-09-30T13:36:45.467Z,17.80
2018-09-30T13:39:16.209Z,16.54
2018-09-30T13:41:45.030Z,16.95
2018-09-30T13:44:14.163Z,17.38
2018-09-30T13:46:44.714Z,17.50
2018-09-30T13:49:13.847Z,17.08
2018-09-30T13:51:42.891Z,18.54
2018-09-30T13:54:12.162Z,19.49
2018-09-30T13:56:41.385Z,19.01
2018-09-30T13:59:10.180Z,17.77
2018-09-30T14:01:39.115Z,19.07
2018-09-30T14:04:08.109Z,18.98
2018-09-30T14:06:37.185Z,19.96
2018-09-30T14:09:08.394Z,19.03
2018-09-30T14:11:37.359Z,18.22
2018-09-30T14:14:06.128Z,18.73
2018-09-30T14:16:36.289Z,19.68
2018-09-30T14:19:05.291Z,20.11
2018-09-30T14:21:35.466Z,20.40
2018-09-30T14:24:04.863Z,20.04
2018-09-30T14:26:33.546Z,22.48
2018-09-30T14:29:03.068Z,24.11
2018-09-30T14:31:32.382Z,24.80
2018-09-30T14:34:01.510Z,25.89
2018-09-30T14:36:30.889Z,27.71
2018-09-30T14:39:00.187Z,29.04
2018-09-30T14:41:29.453Z,30.00
2018-09-30T14:43:58.469Z,30.44
2018-09-30T14:46:27.628Z,31.92
2018-09-30T14:48:56.773Z,31.61
2018-09-30T14:51:26.313Z,32.63
2018-09-30T14:53:55.010Z,32.99
2018-09-30T14:56:23.772Z,32.63
2018-09-30T14:58:52.475Z,33.57
2018-09-30T15:01:23.019Z,33.78
2018-09-30T15:03:52.500Z,33.72
2018-09-30T15:06:22.183Z,34.35
2018-09-30T15:08:51.119Z,34.20
2018-09-30T15:11:20.024Z,34.79
2018-09-30T15:13:49.739Z,35.22
2018-09-30T15:16:19.312Z,35.17
2018-09-30T15:18:48.220Z,35.43
2018-09-30T15:21:17.153Z,35.80
2018-09-30T15:23:46.851Z,36.71
2018-09-30T15:26:15.584Z,36.68
2018-09-30T15:28:44.578Z,37.31
2018-09-30T15:31:14.759Z,37.56
2018-09-30T15:33:43.578Z,38.48
2018-09-30T15:36:12.514Z,39.47
2018-09-30T15:38:41.526Z,39.04
2018-09-30T15:41:10.497Z,40.14
2018-09-30T15:43:39.394Z,40.45
2018-09-30T15:46:08.301Z,41.18
2018-09-30T15:48:37.371Z,43.60
2018-09-30T15:51:06.475Z,44.40
2018-09-30T15:53:35.841Z,44.86
2018-09-30T15:56:05.004Z,45.94
2018-09-30T15:58:33.250Z,45.48
2018-09-30T16:01:02.495Z,46.62
2018-09-30T16:03:30.706Z,47.96
2018-09-30T16:05:58.862Z,48.29
2018-09-30T16:08:28.149Z,48.96
2018-09-30T16:10:57.321Z,49.93
2018-09-30T16:13:26.150Z,50.19
2018-09-30T16:15:54.864Z,50.26
2018-09-30T16:18:24.375Z,51.87
2018-09-30T16:20:54.223Z,51.20
2018-09-30T16:23:23.416Z,51.40
2018-09-30T16:25:52.375Z,51.66
2018-09-30T16:28:22.040Z,52.06
2018-09-30T16:30:50.761Z,53.20
2018-09-30T16:33:20.436Z,53.57
2018-09-30T16:35:50.592Z,53.99
2018-09-30T16:38:20.024Z,54.55
2018-09-30T16:40:50.006Z,54.61
2018-09-30T16:43:19.280Z,53.75
2018-09-30T16:45:47.262Z,53.67
2018-09-30T16:48:16.991Z,52.85
2018-09-30T16:50:45.077Z,52.13
2018-09-30T16:53:14.185Z,52.22
2018-09-30T16:55:43.164Z,52.10
2018-09-30T16:58:12.746Z,52.34
2018-09-30T17:00:41.824Z,51.68
2018-09-30T17:03:12.027Z,51.90
2018-09-30T17:05:40.257Z,52.84
2018-09-30T17:08:09.282Z,53.18
2018-09-30T17:10:37.989Z,54.45
2018-09-30T17:13:07.263Z,54.53
2018-09-30T17:15:36.324Z,55.20
2018-09-30T17:18:05.437Z,55.39
2018-09-30T17:20:35.333Z,55.23
2018-09-30T17:23:04.878Z,55.32
2018-09-30T17:25:33.915Z,55.21
2018-09-30T17:28:03.315Z,55.35
2018-09-30T17:30:32.023Z,56.41
2018-09-30T17:33:00.976Z,57.63
2018-09-30T17:35:30.278Z,58.66
2018-09-30T17:37:59.385Z,59.18
2018-09-30T17:40:28.299Z,60.43
2018-09-30T17:42:57.656Z,60.20
2018-09-30T17:45:27.085Z,60.15
2018-09-30T17:47:56.505Z,60.61
2018-09-30T17:50:25.583Z,61.77
2018-09-30T17:52:56.122Z,62.18
2018-09-30T17:55:26.209Z,62.49
2018-09-30T17:57:55.077Z,62.85
2018-09-30T18:00:24.241Z,62.99
2018-09-30T18:02:53.701Z,63.13
2018-09-30T18:05:22.918Z,64.37
2018-09-30T18:07:51.874Z,64.27
2018-09-30T18:10:21.070Z,64.66
2018-09-30T18:12:50.361Z,65.11
2018-09-30T18:15:19.596Z,65.45
2018-09-30T18:17:49.802Z,66.16
2018-09-30T18:20:19.890Z,66.48
2018-09-30T18:22:49.420Z,66.86
2018-09-30T18:25:19.015Z,67.65
2018-09-30T18:27:48.951Z,68.19
2018-09-30T18:30:18.104Z,68.08
2018-09-30T18:32:47.570Z,68.77
2018-09-30T18:35:17.671Z,69.24
2018-09-30T18:37:47.680Z,69.48
2018-09-30T18:40:16.953Z,69.43
2018-09-30T18:42:47.024Z,69.95
2018-09-30T18:45:17.366Z,70.82
2018-09-30T18:47:46.839Z,71.58
2018-09-30T18:50:16.427Z,72.83
2018-09-30T18:52:47.398Z,73.61
2018-09-30T18:55:17.301Z,73.50
2018-09-30T18:57:47.521Z,73.41
2018-09-30T19:00:17.544Z,73.92
2018-09-30T19:02:46.972Z,74.21
2018-09-30T19:05:16.950Z,74.52
2018-09-30T19:07:46.510Z,74.50
2018-09-30T19:10:16.446Z,75.28
2018-09-30T19:12:45.880Z,75.90
2018-09-30T19:15:15.531Z,76.22
2018-09-30T19:17:45.030Z,76.14
2018-09-30T19:20:14.319Z,76.37
2018-09-30T19:22:44.347Z,77.00
2018-09-30T19:25:13.604Z,77.60
2018-09-30T19:27:42.966Z,78.02
2018-09-30T19:30:12.157Z,77.87
2018-09-30T19:32:41.307Z,78.17
2018-09-30T19:35:10.514Z,78.56
2018-09-30T19:37:40.297Z,79.23
2018-09-30T19:40:09.347Z,79.14
2018-09-30T19:42:38.758Z,79.35
2018-09-30T19:45:08.120Z,79.31
2018-09-30T19:47:37.310Z,79.74
2018-09-30T19:50:06.493Z,80.02
2018-09-30T19:52:36.037Z,80.52
2018-09-30T19:55:05.260Z,80.63
2018-09-30T19:57:35.427Z,80.55
2018-09-30T20:00:04.488Z,82.01
2018-09-30T20:02:33.157Z,81.89
2018-09-30T20:05:02.036Z,81.25
2018-09-30T20:07:30.931Z,81.26
2018-09-30T20:10:00.337Z,81.14
2018-09-30T20:12:29.211Z,81.50
2018-09-30T20:14:58.838Z,81.46
2018-09-30T20:17:27.819Z,82.34
2018-09-30T20:19:57.542Z,81.97
2018-09-30T20:22:26.482Z,82.71
2018-09-30T20:24:55.702Z,82.79
2018-09-30T20:27:24.912Z,82.81
2018-09-30T20:29:54.014Z,82.83
2018-09-30T20:32:23.491Z,82.98
2018-09-30T20:34:53.508Z,82.41
2018-09-30T20:37:22.539Z,82.89
2018-09-30T20:39:51.864Z,82.96
2018-09-30T20:42:21.100Z,82.77
2018-09-30T20:44:50.568Z,83.20
2018-09-30T20:47:19.636Z,82.56
2018-09-30T20:49:49.671Z,82.81
2018-09-30T20:52:19.226Z,82.98
2018-09-30T20:54:48.494Z,83.39
2018-09-30T20:57:17.332Z,84.67
2018-09-30T20:59:46.752Z,84.60
2018-09-30T21:02:15.862Z,85.26
2018-09-30T21:04:44.927Z,84.86
2018-09-30T21:07:14.526Z,85.02
2018-09-30T21:09:43.254Z,85.62
2018-09-30T21:12:12.117Z,86.02
2018-09-30T21:14:41.114Z,86.42
2018-09-30T21:17:10.166Z,85.99
2018-09-30T21:19:39.424Z,86.09
2018-09-30T21:22:08.920Z,86.46
2018-09-30T21:24:38.965Z,86.46
2018-09-30T21:27:08.101Z,86.53
2018-09-30T21:29:37.391Z,87.06
2018-09-30T21:32:06.615Z,86.18
2018-09-30T21:34:35.857Z,86.36
2018-09-30T21:37:04.963Z,86.51
2018-09-30T21:39:34.112Z,86.03
2018-09-30T21:42:03.661Z,86.32
2018-09-30T21:44:32.658Z,86.36
2018-09-30T21:47:01.930Z,85.95
2018-09-30T21:49:31.077Z,86.03
2018-09-30T21:52:00.245Z,86.16
2018-09-30T21:54:28.938Z,86.62
2018-09-30T21:56:57.782Z,86.22
2018-09-30T21:59:27.907Z,86.13
2018-09-30T22:01:57.328Z,87.00
2018-09-30T22:04:26.152Z,87.47
2018-09-30T22:06:55.591Z,86.87
2018-09-30T22:09:24.698Z,86.75
2018-09-30T22:11:54.085Z,86.41
2018-09-30T22:14:23.488Z,86.01
2018-09-30T22:16:52.687Z,86.39
2018-09-30T22:19:21.885Z,86.60
2018-09-30T22:21:51.040Z,86.78
2018-09-30T22:24:20.271Z,86.34
2018-09-30T22:26:48.993Z,86.84
2018-09-30T22:29:17.981Z,87.35
2018-09-30T22:31:47.947Z,87.36
2018-09-30T22:34:16.687Z,87.31
2018-09-30T22:36:45.400Z,87.85
2018-09-30T22:39:14.261Z,87.46
2018-09-30T22:41:42.891Z,87.88
2018-09-30T22:44:11.637Z,87.92
2018-09-30T22:46:41.281Z,88.20
2018-09-30T22:49:10.183Z,87.80
2018-09-30T22:51:38.836Z,87.67
2018-09-30T22:54:07.949Z,87.76
2018-09-30T22:56:36.852Z,87.73
2018-09-30T22:59:05.478Z,88.11
2018-09-30T23:01:34.887Z,88.25
2018-09-30T23:04:04.742Z,88.45
2018-09-30T23:06:33.641Z,88.92
2018-09-30T23:09:02.253Z,88.85
2018-09-30T23:11:31.488Z,88.78
2018-09-30T23:14:00.861Z,89.02
2018-09-30T23:16:29.971Z,89.24
2018-09-30T23:18:58.565Z,89.13
2018-09-30T23:21:27.431Z,88.74
2018-09-30T23:23:56.328Z,89.06
2018-09-30T23:26:25.020Z,89.04
2018-09-30T23:28:54.171Z,89.04
2018-09-30T23:31:23.400Z,89.05
2018-09-30T23:33:52.565Z,89.26
2018-09-30T23:36:22.877Z,88.75
2018-09-30T23:38:51.613Z,89.20
2018-09-30T23:41:21.334Z,89.16
2018-09-30T23:43:50.515Z,89.15
2018-09-30T23:46:19.307Z,88.57
2018-09-30T23:48:47.942Z,88.68
2018-09-30T23:51:17.093Z,88.31
2018-09-30T23:53:45.970Z,88.49
2018-09-30T23:56:15.595Z,88.31
2018-09-30T23:58:45.012Z,88.12
